Orange City, Florida
Current Conditions -  °F | °C
As of 12:53 AM on Thursday 27 Nov 2014 (Local Time) from KSFB Reporting Station
Clear Clear  
Wind Chill: 45°   Ceiling: Unl
Heat Index: 49°   Visibility: 10mi
Dew Point: 45°   Wind: 10mph
Humidity: 86%   Direction: 300°WNW
Pressure: 30.22"   Gusts: NA
Location:  28.95°N, 81.3°W
Report Text: KSFB 270553Z AUTO 30009KT 10SM CLR 09/07 A3022 RMK AO2 SLP233 T00940072 10117 20078 53006
Loading
Personal Weather Stations






























Interactive Weather Map New forecast layout! Learn more

10-Day Weather Forecast

Advertisements
Track Severe Weather on mobile